Glenwood, MN

6:04 PM CDT on July 29, 2016 (GMT -0500)
Glenwood Municipal

Weather History for KGHW - November, 2014

Change the Weather History Date:

Wednesday, November 12, 2014

  Actual Average Record
Temperature  
Mean Temperature 19 °F -  
Max Temperature 24 °F 38 °F 62 °F (2011)
Min Temperature 14 °F 21 °F -4 °F (1966)
Degree Days  
Heating Degree Days 46    
Moisture  
Dew Point 16 °F    
Average Humidity 87    
Maximum Humidity 100    
Minimum Humidity 74    
Precipitation  
Precipitation 0.00 in - - ()
Sea Level Pressure  
Sea Level Pressure 30.30 in    
Wind  
Wind Speed 13 mph (WNW)    
Max Wind Speed 18 mph    
Max Gust Speed 24 mph    
Visibility 9 miles    
Events Snow    
Averages and records for this station are not official NWS values.
T = Trace of Precipitation, MM = Missing Value Source: NWS Daily Summary

Daily Weather History Graph

Daily Weather History Graph

Search for Another Location

Airport or City:

Trip Planner

Search our weather history database for the weather conditions in past years. The results will help you decide how hot, cold, wet, or windy it might be!

Date:

Astronomy

Nov. 12, 2014 Rise Set
Actual Time 7:16 AM CST 4:53 PM CST
Civil Twilight 6:44 AM CST 5:25 PM CST
Nautical Twilight 6:08 AM CST 6:01 PM CST
Astronomical Twilight 5:33 AM CST 6:36 PM CST
Moon 10:16 PM CST (11/12) 12:01 PM CST (11/12)
Length of Visible Light 10h 41m
Length of Day
9h 37m
Waning Gibbous, 68% of the Moon is Illuminated
Nov 12
Waning Gibbous
Nov 14
Last Quarter
Nov 22
New
Nov 29
First Quarter
Dec 6
Full

Hourly Weather History & Observations

Time (CST) Temp. Windchill Dew Point Humidity Pressure Visibility Wind Dir Wind Speed Gust Speed Precip Events Conditions
12:13 AM 15.8 °F 1.4 °F 12.2 °F 86% 30.27 in 10.0 mi WNW 13.8 mph - N/A   Clear
12:33 AM 15.8 °F 2.7 °F 12.2 °F 86% 30.27 in 10.0 mi WNW 11.5 mph - N/A   Clear
12:53 AM 15.8 °F 2.1 °F 12.2 °F 86% 30.27 in 10.0 mi WNW 12.7 mph - N/A   Clear
1:13 AM 15.8 °F 3.4 °F 12.2 °F 86% 30.27 in 10.0 mi West 10.4 mph - N/A   Clear
1:33 AM 15.8 °F 3.4 °F 12.2 °F 86% 30.27 in 10.0 mi WNW 10.4 mph - N/A   Clear
1:53 AM 15.8 °F 3.4 °F 12.2 °F 86% 30.27 in 10.0 mi WNW 10.4 mph - N/A   Clear
2:13 AM 15.8 °F 2.7 °F 12.2 °F 86% 30.27 in 10.0 mi WNW 11.5 mph - N/A   Clear
2:33 AM 15.8 °F 4.2 °F 12.2 °F 86% 30.28 in 10.0 mi WNW 9.2 mph - N/A   Clear
2:53 AM 15.8 °F 4.2 °F 12.2 °F 86% 30.28 in 10.0 mi WNW 9.2 mph - N/A   Clear
3:13 AM 14.0 °F 2.0 °F 12.2 °F 93% 30.28 in 10.0 mi WNW 9.2 mph - N/A   Scattered Clouds
3:33 AM 14.0 °F 3.9 °F 12.2 °F 93% 30.28 in 10.0 mi West 6.9 mph - N/A   Mostly Cloudy
3:53 AM 15.8 °F 5.1 °F 12.2 °F 86% 30.28 in 10.0 mi West 8.1 mph - N/A   Overcast
4:13 AM 15.8 °F 7.2 °F 12.2 °F 86% 30.28 in 10.0 mi West 5.8 mph - N/A   Mostly Cloudy
4:34 AM 14.0 °F 2.9 °F 12.2 °F 93% 30.27 in 10.0 mi West 8.1 mph - N/A   Mostly Cloudy
4:53 AM 14.0 °F 3.9 °F 12.2 °F 93% 30.27 in 10.0 mi West 6.9 mph - N/A   Overcast
5:13 AM 14.0 °F 2.0 °F 12.2 °F 93% 30.28 in 10.0 mi West 9.2 mph - N/A   Mostly Cloudy
5:33 AM 14.0 °F 1.2 °F 12.2 °F 93% 30.28 in 10.0 mi West 10.4 mph - N/A   Mostly Cloudy
5:53 AM 14.0 °F 0.5 °F 12.2 °F 93% 30.29 in 10.0 mi West 11.5 mph - N/A   Mostly Cloudy
6:13 AM 14.0 °F 1.2 °F 12.2 °F 93% 30.28 in 10.0 mi West 10.4 mph - N/A Snow Light Snow
6:33 AM 14.0 °F 0.5 °F 12.2 °F 93% 30.28 in 10.0 mi West 11.5 mph - N/A   Mostly Cloudy
6:53 AM 14.0 °F 2.0 °F 12.2 °F 93% 30.28 in 10.0 mi West 9.2 mph - N/A   Overcast
7:13 AM 15.8 °F 3.4 °F 12.2 °F 86% 30.28 in 10.0 mi WNW 10.4 mph - N/A   Overcast
7:33 AM 15.8 °F 0.9 °F 14.0 °F 93% 30.28 in 10.0 mi WNW 15.0 mph - N/A   Overcast
7:53 AM 15.8 °F 2.1 °F 15.8 °F 100% 30.28 in 10.0 mi West 12.7 mph - N/A   Overcast
8:13 AM 17.6 °F 2.7 °F 15.8 °F 93% 30.28 in 4.0 mi WNW 16.1 mph - N/A   Mostly Cloudy
8:33 AM 17.6 °F 3.2 °F 15.8 °F 93% 30.28 in 7.0 mi WNW 15.0 mph - N/A   Mostly Cloudy
8:53 AM 17.6 °F 3.7 °F 15.8 °F 93% 30.29 in 5.0 mi WNW 13.8 mph - N/A   Overcast
9:13 AM 17.6 °F 2.7 °F 15.8 °F 93% 30.29 in 4.0 mi WNW 16.1 mph - N/A Snow Light Snow
9:33 AM 19.4 °F 6.6 °F 15.8 °F 86% 30.29 in 5.0 mi WNW 12.7 mph - N/A Snow Light Snow
9:53 AM 19.4 °F 5.5 °F 15.8 °F 86% 30.29 in 4.0 mi WNW 15.0 mph 18.4 mph N/A Snow Light Snow
10:13 AM 21.2 °F 8.9 °F 15.8 °F 80% 30.29 in 4.0 mi WNW 12.7 mph 17.3 mph N/A Snow Light Snow
10:33 AM 21.2 °F 8.3 °F 15.8 °F 80% 30.29 in 10.0 mi NW 13.8 mph - N/A Snow Light Snow
10:53 AM 21.2 °F 8.3 °F 15.8 °F 80% 30.29 in 5.0 mi WNW 13.8 mph - N/A   Haze
11:13 AM 21.2 °F 9.5 °F 17.6 °F 86% 30.29 in 10.0 mi NW 11.5 mph - N/A   Overcast
11:33 AM 21.2 °F 8.3 °F 17.6 °F 86% 30.28 in 10.0 mi WNW 13.8 mph - N/A Snow Light Snow
11:53 AM 23.0 °F 10.6 °F 17.6 °F 80% 30.29 in 10.0 mi NW 13.8 mph - N/A   Mostly Cloudy
12:13 PM 23.0 °F 10.6 °F 17.6 °F 80% 30.28 in 10.0 mi WNW 13.8 mph - N/A   Mostly Cloudy
12:33 PM 23.0 °F 10.6 °F 17.6 °F 80% 30.28 in 10.0 mi NW 13.8 mph 19.6 mph N/A   Scattered Clouds
12:53 PM 24.8 °F 11.9 °F 17.6 °F 74% 30.28 in 10.0 mi WNW 16.1 mph - N/A   Scattered Clouds
1:13 PM 24.8 °F 12.9 °F 17.6 °F 74% 30.28 in 10.0 mi WNW 13.8 mph - N/A   Mostly Cloudy
1:33 PM 24.8 °F 11.5 °F 17.6 °F 74% 30.28 in 7.0 mi WNW 17.3 mph - N/A Snow Light Snow
1:53 PM 23.0 °F 9.6 °F 17.6 °F 80% 30.28 in 10.0 mi WNW 16.1 mph - N/A   Overcast
2:13 PM 23.0 °F 10.1 °F 17.6 °F 80% 30.28 in 7.0 mi WNW 15.0 mph - N/A Snow Light Snow
2:33 PM 23.0 °F 8.7 °F 17.6 °F 80% 30.28 in 10.0 mi WNW 18.4 mph 23.0 mph N/A   Mostly Cloudy
2:53 PM 23.0 °F 8.7 °F 17.6 °F 80% 30.28 in 10.0 mi WNW 18.4 mph 23.0 mph N/A   Mostly Cloudy
3:13 PM 23.0 °F 10.1 °F 17.6 °F 80% 30.29 in 10.0 mi NW 15.0 mph - N/A   Mostly Cloudy
3:33 PM 23.0 °F 9.6 °F 17.6 °F 80% 30.29 in 10.0 mi WNW 16.1 mph - N/A   Overcast
3:53 PM 23.0 °F 11.7 °F 19.4 °F 86% 30.30 in 7.0 mi WNW 11.5 mph - N/A Snow Light Snow
4:13 PM 23.0 °F 10.1 °F 19.4 °F 86% 30.30 in 10.0 mi WNW 15.0 mph 21.9 mph N/A Snow Light Snow
4:33 PM 23.0 °F 10.6 °F 19.4 °F 86% 30.30 in 4.0 mi NW 13.8 mph - N/A Snow Light Snow
4:53 PM 21.2 °F 8.3 °F 17.6 °F 86% 30.31 in 7.0 mi NW 13.8 mph - N/A   Overcast
5:13 PM 21.2 °F 7.8 °F 17.6 °F 86% 30.31 in 10.0 mi WNW 15.0 mph - N/A   Overcast
5:33 PM 21.2 °F 8.3 °F 17.6 °F 86% 30.32 in 10.0 mi WNW 13.8 mph - N/A   Overcast
5:53 PM 21.2 °F 7.8 °F 17.6 °F 86% 30.32 in 10.0 mi WNW 15.0 mph - N/A   Scattered Clouds
6:13 PM 21.2 °F 7.3 °F 17.6 °F 86% 30.32 in 10.0 mi WNW 16.1 mph - N/A   Scattered Clouds
6:33 PM 21.2 °F 7.3 °F 19.4 °F 93% 30.32 in 3.0 mi WNW 16.1 mph - N/A Snow Light Snow
6:53 PM 21.2 °F 6.4 °F 17.6 °F 86% 30.32 in 2.5 mi WNW 18.4 mph 23.0 mph N/A Snow Light Snow
7:13 PM 21.2 °F 7.3 °F 19.4 °F 93% 30.32 in 1.8 mi NW 16.1 mph 24.2 mph N/A Snow Light Snow
7:33 PM 21.2 °F 7.3 °F 17.6 °F 86% 30.33 in 3.0 mi NW 16.1 mph - N/A Snow Light Snow
7:53 PM 21.2 °F 7.8 °F 17.6 °F 86% 30.33 in 5.0 mi NW 15.0 mph 21.9 mph N/A   Overcast
8:13 PM 21.2 °F 7.8 °F 17.6 °F 86% 30.34 in 10.0 mi NW 15.0 mph - N/A   Scattered Clouds
8:33 PM 19.4 °F 6.0 °F 17.6 °F 93% 30.34 in 10.0 mi NW 13.8 mph 20.7 mph N/A   Scattered Clouds
8:53 PM 19.4 °F 5.5 °F 17.6 °F 93% 30.34 in 10.0 mi NW 15.0 mph - N/A   Clear
9:13 PM 19.4 °F 5.5 °F 17.6 °F 93% 30.34 in 10.0 mi NW 15.0 mph 19.6 mph N/A   Scattered Clouds
9:33 PM 19.4 °F 5.5 °F 17.6 °F 93% 30.35 in 10.0 mi NW 15.0 mph - N/A   Clear
9:53 PM 19.4 °F 6.0 °F 17.6 °F 93% 30.35 in 10.0 mi NW 13.8 mph 19.6 mph N/A Snow Light Snow
10:13 PM 19.4 °F 6.0 °F 17.6 °F 93% 30.35 in 10.0 mi NW 13.8 mph - N/A   Clear
10:33 PM 19.4 °F 5.5 °F 15.8 °F 86% 30.35 in 10.0 mi WNW 15.0 mph - N/A   Clear
10:53 PM 19.4 °F 5.0 °F 17.6 °F 93% 30.36 in 10.0 mi NW 16.1 mph 20.7 mph N/A   Clear
11:13 PM 19.4 °F 5.0 °F 17.6 °F 93% 30.35 in 10.0 mi NW 16.1 mph 21.9 mph N/A   Clear
11:33 PM 19.4 °F 5.5 °F 17.6 °F 93% 30.36 in 10.0 mi NW 15.0 mph 20.7 mph N/A   Clear
11:53 PM 19.4 °F 6.0 °F 17.6 °F 93% 30.36 in 10.0 mi NW 13.8 mph 21.9 mph N/A   Clear